This demonstration page uses our WeatherBlox Daily Observations layout. Learn more.

Left ArrowRight Arrow

39.08367, -84.50855

Hourly Observations for May 6, 2017

Temp ( °F °C ) Dew Point ( °F °C ) Humidity (%) Winds ( mph kmh ) Pressure ( in mb ) Visibility ( mi km ) Precip ( " mm )
12:53 am 00:53 Mostly Cloudy 48 8.9 44 6.7 86 86 NW 5 7 29.69 1005 10 16.0934 N/A
1:53 am 01:53 Clear 47 8.3 44 6.7 90 90 WNW 9 15 29.68 1005 10 16.0934 N/A
2:53 am 02:53 Clear 46 7.8 43 6.1 89 89 WNW 9 15 29.68 1005 10 16.0934 N/A
3:53 am 03:53 Clear 45 7.2 42 5.6 90 90 WNW 10 17 29.67 1005 10 16.0934 N/A
4:53 am 04:53 Clear 44 6.7 41 5 89 89 WNW 9 15 29.67 1005 10 16.0934 N/A
5:53 am 05:53 Clear 42 5.6 41 5 96 96 N N/A 29.68 1005 10 16.0934 N/A
6:53 am 06:53 Sunny 44 6.7 41 5 89 89 WNW 8 13 29.7 1006 10 16.0934 N/A
7:53 am 07:53 Mostly Cloudy 45 7.2 41 5 86 86 N N/A 29.72 1006 10 16.0934 N/A
8:53 am 08:53 Partly Cloudy 47 8.3 42 5.6 83 83 NW 3 6 29.72 1006 10 16.0934 N/A
9:53 am 09:53 Cloudy 49 9.4 43 6.1 80 80 WNW 5 7 29.72 1006 10 16.0934 N/A
10:53 am 10:53 Cloudy 50 10 44 6.7 80 80 WNW 6 9 29.72 1007 10 16.0934 N/A
11:53 am 11:53 Partly Cloudy 53 11.7 46 7.8 77 77 VRB 3 6 29.71 1006 10 16.0934 N/A
12:53 pm 12:53 Mostly Cloudy 56 13.3 46 7.8 70 70 WNW 6 9 29.71 1006 10 16.0934 N/A
1:53 pm 13:53 Mostly Cloudy 59 15 42 5.6 54 54 VRB 3 6 29.7 1006 10 16.0934 N/A
2:53 pm 14:53 Cloudy 60 15.6 41 5 50 50 VRB 5 7 29.69 1005 10 16.0934 N/A
3:53 pm 15:53 Mostly Cloudy 58 14.4 42 5.6 56 56 W 12 19 29.7 1006 10 16.0934 N/A
4:53 pm 16:53 Mostly Cloudy 60 15.6 40 4.4 47 47 NW 9 15 29.7 1006 10 16.0934 N/A
5:53 pm 17:53 Cloudy 63 17 39 4 42 42 WNW 15 24 29.71 1006 10 16.0934 N/A
6:53 pm 18:53 Mostly Cloudy 61 16.1 38 3.3 43 43 NW 12 19 29.71 1006 10 16.0934 N/A
7:53 pm 19:53 Mostly Cloudy 59 15 38 3.3 46 46 NW 8 13 29.73 1007 10 16.0934 N/A
8:53 pm 20:53 Mostly Clear 56 13.3 36 2.2 47 47 NW 10 17 29.77 1008 10 16.0934 N/A
9:53 pm 21:53 Clear 53 11.7 36 2.2 52 52 WNW 8 13 29.8 1009 10 16.0934 N/A
10:53 pm 22:53 Clear 51 10.6 39 3.9 64 64 WNW 12 19 29.83 1010 10 16.0934 N/A
11:53 pm 23:53 Clear 49 9.4 33 0.6 55 55 WNW 10 17 29.83 1010 10 16.0934 N/A

Powered by AerisWeather